createdAt,value
2022-09-12T00:01:22.251Z,26.29
2022-09-12T00:03:52.714Z,26.32
2022-09-12T00:06:29.703Z,26.29
2022-09-12T00:08:59.354Z,26.23
2022-09-12T00:11:26.766Z,26.19
2022-09-12T00:13:57.720Z,26.18
2022-09-12T00:16:26.423Z,26.25
2022-09-12T00:18:53.594Z,26.09
2022-09-12T00:21:21.401Z,26.22
2022-09-12T00:23:49.098Z,25.66
2022-09-12T00:26:17.905Z,25.52
2022-09-12T00:28:45.679Z,25.53
2022-09-12T00:31:15.896Z,25.80
2022-09-12T00:33:42.938Z,25.57
2022-09-12T00:36:12.637Z,25.81
2022-09-12T00:38:41.849Z,25.53
2022-09-12T00:41:15.978Z,25.04
2022-09-12T00:43:53.178Z,25.17
2022-09-12T00:46:37.276Z,25.07
2022-09-12T00:49:18.749Z,24.98
2022-09-12T00:51:51.359Z,25.02
2022-09-12T00:54:23.946Z,25.01
2022-09-12T00:56:52.741Z,25.09
2022-09-12T00:59:27.501Z,24.87
2022-09-12T01:01:54.631Z,25.17
2022-09-12T01:04:24.483Z,24.97
2022-09-12T01:06:52.612Z,24.94
2022-09-12T01:09:22.712Z,24.92
2022-09-12T01:11:51.565Z,24.97
2022-09-12T01:14:19.371Z,24.93
2022-09-12T01:16:47.275Z,24.92
2022-09-12T01:19:32.125Z,24.86
2022-09-12T01:22:13.481Z,24.88
2022-09-12T01:24:51.946Z,24.71
2022-09-12T01:27:43.926Z,24.83
2022-09-12T01:30:38.878Z,24.75
2022-09-12T01:33:17.553Z,24.63
2022-09-12T01:36:23.210Z,24.77
2022-09-12T01:39:03.326Z,24.82
2022-09-12T01:41:49.862Z,24.87
2022-09-12T01:44:26.040Z,24.86
2022-09-12T01:47:14.472Z,24.78
2022-09-12T01:49:57.235Z,24.55
2022-09-12T01:52:38.213Z,24.64
2022-09-12T01:55:22.658Z,24.61
2022-09-12T01:57:57.431Z,24.68
2022-09-12T02:00:24.858Z,24.92
2022-09-12T02:02:58.465Z,24.88
2022-09-12T02:05:32.438Z,24.90
2022-09-12T02:08:08.028Z,24.97
2022-09-12T02:10:43.383Z,24.99
2022-09-12T02:13:16.790Z,25.03
2022-09-12T02:15:50.729Z,25.02
2022-09-12T02:18:18.603Z,24.95
2022-09-12T02:20:49.099Z,24.90
2022-09-12T02:23:26.593Z,24.86
2022-09-12T02:25:57.841Z,24.82
2022-09-12T02:28:29.910Z,24.86
2022-09-12T02:31:08.485Z,24.84
2022-09-12T02:33:48.407Z,24.77
2022-09-12T02:36:27.531Z,24.74
2022-09-12T02:38:55.801Z,24.56
2022-09-12T02:41:22.943Z,24.58
2022-09-12T02:43:51.520Z,24.71
2022-09-12T02:46:32.003Z,24.86
2022-09-12T02:48:58.662Z,24.98
2022-09-12T02:51:26.497Z,25.03
2022-09-12T02:53:53.393Z,24.97
2022-09-12T02:56:27.006Z,24.97
2022-09-12T02:58:55.329Z,25.03
2022-09-12T03:01:49.399Z,25.16
2022-09-12T03:04:48.017Z,25.10
2022-09-12T03:07:29.894Z,25.14
2022-09-12T03:10:14.923Z,25.03
2022-09-12T03:12:52.431Z,25.07
2022-09-12T03:15:34.860Z,24.85
2022-09-12T03:18:38.954Z,24.89
2022-09-12T03:21:30.576Z,24.92
2022-09-12T03:24:11.106Z,24.94
2022-09-12T03:27:05.345Z,24.98
2022-09-12T03:29:33.149Z,24.99
2022-09-12T03:31:59.624Z,24.96
2022-09-12T03:34:27.722Z,24.93
2022-09-12T03:36:55.486Z,24.98
2022-09-12T03:39:24.397Z,25.11
2022-09-12T03:41:51.241Z,25.10
2022-09-12T03:44:18.022Z,25.07
2022-09-12T03:46:44.848Z,24.98
2022-09-12T03:49:11.977Z,25.07
2022-09-12T03:51:39.744Z,24.97
2022-09-12T03:54:06.843Z,24.90
2022-09-12T03:56:33.370Z,24.68
2022-09-12T03:58:59.883Z,24.49
2022-09-12T04:01:26.436Z,24.37
2022-09-12T04:03:52.993Z,24.31
2022-09-12T04:06:21.759Z,24.34
2022-09-12T04:08:50.446Z,24.40
2022-09-12T04:11:18.947Z,24.41
2022-09-12T04:13:46.775Z,24.44
2022-09-12T04:16:15.002Z,24.47
2022-09-12T04:18:41.575Z,24.43
2022-09-12T04:21:11.149Z,24.44
2022-09-12T04:23:38.048Z,24.24
2022-09-12T04:26:07.938Z,24.29
2022-09-12T04:28:37.222Z,24.37
2022-09-12T04:31:09.316Z,24.41
2022-09-12T04:33:36.508Z,24.48
2022-09-12T04:36:23.146Z,24.42
2022-09-12T04:38:50.720Z,24.58
2022-09-12T04:41:24.242Z,24.60
2022-09-12T04:43:58.101Z,24.51
2022-09-12T04:46:26.189Z,24.56
2022-09-12T04:48:56.585Z,24.50
2022-09-12T04:51:29.588Z,24.34
2022-09-12T04:54:00.414Z,24.44
2022-09-12T04:56:28.725Z,24.38
2022-09-12T04:59:00.414Z,24.26
2022-09-12T05:01:28.715Z,24.25
2022-09-12T05:03:56.666Z,24.22
2022-09-12T05:06:25.691Z,24.23
2022-09-12T05:08:53.393Z,24.42
2022-09-12T05:11:26.614Z,24.46
2022-09-12T05:13:55.218Z,24.51
2022-09-12T05:16:22.853Z,24.76
2022-09-12T05:18:50.265Z,24.75
2022-09-12T05:21:23.138Z,24.83
2022-09-12T05:23:59.472Z,24.93
2022-09-12T05:26:27.083Z,25.33
2022-09-12T05:28:56.246Z,25.80
2022-09-12T05:31:27.783Z,26.38
2022-09-12T05:33:55.922Z,27.20
2022-09-12T05:36:23.946Z,27.99
2022-09-12T05:38:50.703Z,28.67
2022-09-12T05:41:24.997Z,29.17
2022-09-12T05:43:53.830Z,29.93
2022-09-12T05:46:22.364Z,30.49
2022-09-12T05:48:55.112Z,31.58
2022-09-12T05:51:26.828Z,32.52
2022-09-12T05:53:56.062Z,33.23
2022-09-12T05:56:25.158Z,34.19
2022-09-12T05:59:00.289Z,35.21
2022-09-12T06:01:30.052Z,35.47
2022-09-12T06:04:00.724Z,36.02
2022-09-12T06:06:29.488Z,36.73
2022-09-12T06:08:59.016Z,37.57
2022-09-12T06:11:29.259Z,38.28
2022-09-12T06:13:57.510Z,38.95
2022-09-12T06:16:27.093Z,39.54
2022-09-12T06:18:59.418Z,39.71
2022-09-12T06:21:26.811Z,39.71
2022-09-12T06:23:55.230Z,40.36
2022-09-12T06:26:23.466Z,40.92
2022-09-12T06:28:50.537Z,41.25
2022-09-12T06:31:19.847Z,41.65
2022-09-12T06:33:48.783Z,41.88
2022-09-12T06:36:27.091Z,42.05
2022-09-12T06:39:10.585Z,42.12
2022-09-12T06:41:41.600Z,42.69
2022-09-12T06:44:16.335Z,42.43
2022-09-12T06:46:43.149Z,42.32
2022-09-12T06:49:10.328Z,41.55
2022-09-12T06:51:36.997Z,41.99
2022-09-12T06:54:05.329Z,41.93
2022-09-12T06:56:31.928Z,42.00
2022-09-12T06:58:59.543Z,41.35
2022-09-12T07:01:31.539Z,41.70
2022-09-12T07:04:00.532Z,41.05
2022-09-12T07:06:32.563Z,41.76
2022-09-12T07:09:01.023Z,41.59
2022-09-12T07:11:31.820Z,42.31
2022-09-12T07:13:59.859Z,42.73
2022-09-12T07:16:26.512Z,42.88
2022-09-12T07:18:55.634Z,43.27
2022-09-12T07:21:22.943Z,43.75
2022-09-12T07:23:52.068Z,44.32
2022-09-12T07:26:18.973Z,44.39
2022-09-12T07:28:52.034Z,45.05
2022-09-12T07:31:19.344Z,45.17
2022-09-12T07:33:45.994Z,45.93
2022-09-12T07:36:16.173Z,46.61
2022-09-12T07:38:43.890Z,46.45
2022-09-12T07:41:21.096Z,46.39
2022-09-12T07:43:48.314Z,46.50
2022-09-12T07:46:15.431Z,46.20
2022-09-12T07:48:42.071Z,46.63
2022-09-12T07:51:11.314Z,47.09
2022-09-12T07:53:40.803Z,47.09
2022-09-12T07:56:10.321Z,46.48
2022-09-12T07:58:38.265Z,46.73
2022-09-12T08:01:12.893Z,46.55
2022-09-12T08:03:41.483Z,46.86
2022-09-12T08:06:17.827Z,46.72
2022-09-12T08:08:44.343Z,46.24
2022-09-12T08:11:13.007Z,46.35
2022-09-12T08:13:41.733Z,44.05
2022-09-12T08:16:17.012Z,45.00
2022-09-12T08:18:44.295Z,44.67
2022-09-12T08:21:19.483Z,45.00
2022-09-12T08:23:47.017Z,44.09
2022-09-12T08:26:13.929Z,43.81
2022-09-12T08:28:45.561Z,44.04
2022-09-12T08:31:14.433Z,43.75
2022-09-12T08:33:41.647Z,43.43
2022-09-12T08:36:16.610Z,43.80
2022-09-12T08:38:45.614Z,43.82
2022-09-12T08:41:18.049Z,44.18
2022-09-12T08:44:22.198Z,44.84
2022-09-12T08:47:11.292Z,45.44
2022-09-12T08:49:37.714Z,45.44
2022-09-12T08:52:13.148Z,44.79
2022-09-12T08:54:39.839Z,43.91
2022-09-12T08:57:11.708Z,43.18
2022-09-12T08:59:41.814Z,43.83
2022-09-12T09:02:39.670Z,42.80
2022-09-12T09:05:29.872Z,42.25
2022-09-12T09:08:15.481Z,41.87
2022-09-12T09:10:59.689Z,40.48
2022-09-12T09:14:05.623Z,39.40
2022-09-12T09:16:44.756Z,38.69
2022-09-12T09:19:17.418Z,38.81
2022-09-12T09:22:01.140Z,38.70
2022-09-12T09:24:36.974Z,39.14
2022-09-12T09:27:41.985Z,38.92
2022-09-12T09:30:15.885Z,38.07
2022-09-12T09:32:43.898Z,37.47
2022-09-12T09:35:36.360Z,37.30
2022-09-12T09:38:29.117Z,38.10
2022-09-12T09:41:24.478Z,38.44
2022-09-12T09:43:51.181Z,38.50
2022-09-12T09:46:18.750Z,38.61
2022-09-12T09:48:48.797Z,38.48
2022-09-12T09:51:21.339Z,38.37
2022-09-12T09:54:00.878Z,37.95
2022-09-12T09:56:29.206Z,38.17
2022-09-12T09:58:55.799Z,38.89
2022-09-12T10:01:22.602Z,38.81
2022-09-12T10:03:54.569Z,37.87
2022-09-12T10:06:21.012Z,38.45
2022-09-12T10:08:48.978Z,37.68
2022-09-12T10:11:15.593Z,37.92
2022-09-12T10:13:54.543Z,38.00
2022-09-12T10:16:27.815Z,38.81
2022-09-12T10:19:02.762Z,38.21
2022-09-12T10:21:36.304Z,37.60
2022-09-12T10:24:20.616Z,37.74
2022-09-12T10:26:56.607Z,37.97
2022-09-12T10:29:32.183Z,37.62
2022-09-12T10:32:03.181Z,37.75
2022-09-12T10:34:36.390Z,37.58
2022-09-12T10:37:08.519Z,37.42
2022-09-12T10:39:37.683Z,37.88
2022-09-12T10:42:05.579Z,36.93
2022-09-12T10:44:34.447Z,37.27
2022-09-12T10:47:21.150Z,37.14
2022-09-12T10:49:48.261Z,36.35
2022-09-12T10:52:23.896Z,36.51
2022-09-12T10:54:51.523Z,36.49
2022-09-12T10:57:41.750Z,36.24
2022-09-12T11:00:20.456Z,36.94
2022-09-12T11:03:16.006Z,37.79
2022-09-12T11:05:48.346Z,37.73
2022-09-12T11:08:38.975Z,37.23
2022-09-12T11:11:29.336Z,36.59
2022-09-12T11:14:19.946Z,37.08
2022-09-12T11:16:52.699Z,38.11
2022-09-12T11:19:50.902Z,37.97
2022-09-12T11:22:38.530Z,38.31
2022-09-12T11:25:14.423Z,37.84
2022-09-12T11:28:18.448Z,37.51
2022-09-12T11:31:07.037Z,37.95
2022-09-12T11:33:45.956Z,38.07
2022-09-12T11:36:25.941Z,37.78
2022-09-12T11:39:03.214Z,38.35
2022-09-12T11:41:39.840Z,37.23
2022-09-12T11:44:22.228Z,37.55
2022-09-12T11:46:51.953Z,37.36
2022-09-12T11:49:26.731Z,36.33
2022-09-12T11:52:16.573Z,35.83
2022-09-12T11:55:00.774Z,36.46
2022-09-12T11:57:50.588Z,37.03
2022-09-12T12:00:20.595Z,37.13
2022-09-12T12:03:13.990Z,36.75
2022-09-12T12:05:43.229Z,37.29
2022-09-12T12:08:11.285Z,36.80
2022-09-12T12:10:43.379Z,36.61
2022-09-12T12:13:26.315Z,37.11
2022-09-12T12:16:00.843Z,37.06
2022-09-12T12:18:29.771Z,37.08
2022-09-12T12:21:16.012Z,37.74
2022-09-12T12:24:01.909Z,36.75
2022-09-12T12:26:40.595Z,36.34
2022-09-12T12:29:17.876Z,36.66
2022-09-12T12:32:01.852Z,37.75
2022-09-12T12:34:38.603Z,37.61
2022-09-12T12:37:23.332Z,38.01
2022-09-12T12:39:50.738Z,37.98
2022-09-12T12:42:32.612Z,37.93
2022-09-12T12:44:59.909Z,36.72
2022-09-12T12:47:31.943Z,37.52
2022-09-12T12:50:05.474Z,37.65
2022-09-12T12:52:46.849Z,36.77
2022-09-12T12:55:35.221Z,36.75
2022-09-12T12:58:07.092Z,36.68
2022-09-12T13:00:36.686Z,36.45
2022-09-12T13:03:06.515Z,36.42
2022-09-12T13:05:50.317Z,36.83
2022-09-12T13:08:16.751Z,36.73
2022-09-12T13:10:56.881Z,37.49
2022-09-12T13:13:28.519Z,37.95
2022-09-12T13:15:55.330Z,37.59
2022-09-12T13:18:27.719Z,37.31
2022-09-12T13:21:19.266Z,36.61
2022-09-12T13:24:02.043Z,37.52
2022-09-12T13:26:33.942Z,38.08
2022-09-12T13:29:17.905Z,37.67
2022-09-12T13:32:01.224Z,38.25
2022-09-12T13:34:37.598Z,37.76
2022-09-12T13:37:16.162Z,37.71
2022-09-12T13:40:11.759Z,37.93
2022-09-12T13:42:51.148Z,37.56
2022-09-12T13:45:21.898Z,38.25
2022-09-12T13:48:16.907Z,38.64
2022-09-12T13:50:52.294Z,38.38
2022-09-12T13:53:23.738Z,37.33
2022-09-12T13:55:55.365Z,36.95
2022-09-12T13:58:21.838Z,37.19
2022-09-12T14:01:05.854Z,35.97
2022-09-12T14:03:58.963Z,35.44
2022-09-12T14:06:27.500Z,35.06
2022-09-12T14:09:01.264Z,36.49
2022-09-12T14:11:30.245Z,36.53
2022-09-12T14:13:57.718Z,37.01
2022-09-12T14:16:27.268Z,36.85
2022-09-12T14:18:54.194Z,37.25
2022-09-12T14:21:34.142Z,35.98
2022-09-12T14:24:02.380Z,35.81
2022-09-12T14:26:34.074Z,35.78
2022-09-12T14:29:02.030Z,36.37
2022-09-12T14:31:36.802Z,35.48
2022-09-12T14:34:18.004Z,35.67
2022-09-12T14:36:47.806Z,35.15
2022-09-12T14:39:32.160Z,35.67
2022-09-12T14:42:20.860Z,36.52
2022-09-12T14:45:01.287Z,36.24
2022-09-12T14:47:34.772Z,36.05
2022-09-12T14:50:01.786Z,34.82
2022-09-12T14:52:34.946Z,35.56
2022-09-12T14:55:23.799Z,36.30
2022-09-12T14:58:15.476Z,37.36
2022-09-12T15:01:06.742Z,37.08
2022-09-12T15:03:34.764Z,37.31
2022-09-12T15:06:03.936Z,37.89
2022-09-12T15:08:31.862Z,37.25
2022-09-12T15:10:59.331Z,36.99
2022-09-12T15:13:28.027Z,36.94
2022-09-12T15:15:56.754Z,36.76
2022-09-12T15:18:28.901Z,36.70
2022-09-12T15:20:57.927Z,36.33
2022-09-12T15:23:28.518Z,36.60
2022-09-12T15:25:55.131Z,36.79
2022-09-12T15:28:23.924Z,36.69
2022-09-12T15:30:53.283Z,37.24
2022-09-12T15:33:22.750Z,37.71
2022-09-12T15:35:50.317Z,37.13
2022-09-12T15:38:16.847Z,37.29
2022-09-12T15:40:43.603Z,37.15
2022-09-12T15:43:13.290Z,37.27
2022-09-12T15:45:42.913Z,37.29
2022-09-12T15:48:10.009Z,37.35
2022-09-12T15:50:36.507Z,36.78
2022-09-12T15:53:03.195Z,36.22
2022-09-12T15:55:32.204Z,36.34
2022-09-12T15:58:02.443Z,35.62
2022-09-12T16:00:31.881Z,35.87
2022-09-12T16:02:58.393Z,36.09
2022-09-12T16:05:26.732Z,36.81
2022-09-12T16:07:54.899Z,36.23
2022-09-12T16:10:24.325Z,36.54
2022-09-12T16:12:51.364Z,36.33
2022-09-12T16:15:21.059Z,36.00
2022-09-12T16:17:48.065Z,36.06
2022-09-12T16:20:14.925Z,35.89
2022-09-12T16:22:42.741Z,35.63
2022-09-12T16:25:10.161Z,35.31
2022-09-12T16:27:36.972Z,35.17
2022-09-12T16:30:06.266Z,34.92
2022-09-12T16:32:33.117Z,35.27
2022-09-12T16:34:59.987Z,35.19
2022-09-12T16:37:26.510Z,35.49
2022-09-12T16:39:53.760Z,35.21
2022-09-12T16:42:20.367Z,35.18
2022-09-12T16:44:47.463Z,35.05
2022-09-12T16:47:14.674Z,35.18
2022-09-12T16:49:41.173Z,35.47
2022-09-12T16:52:08.120Z,35.39
2022-09-12T16:54:34.716Z,35.52
2022-09-12T16:57:01.245Z,35.68
2022-09-12T16:59:27.761Z,35.61
2022-09-12T17:01:54.362Z,35.27
2022-09-12T17:04:23.579Z,35.32
2022-09-12T17:06:51.267Z,35.15
2022-09-12T17:09:18.541Z,34.71
2022-09-12T17:11:50.217Z,34.81
2022-09-12T17:14:17.061Z,34.90
2022-09-12T17:16:50.805Z,34.81
2022-09-12T17:19:26.393Z,34.86
2022-09-12T17:21:54.283Z,34.95
2022-09-12T17:24:21.230Z,34.59
2022-09-12T17:26:47.760Z,34.51
2022-09-12T17:29:15.659Z,34.68
2022-09-12T17:31:43.894Z,34.63
2022-09-12T17:34:14.217Z,34.72
2022-09-12T17:36:44.030Z,34.96
2022-09-12T17:39:11.594Z,35.07
2022-09-12T17:41:38.491Z,35.02
2022-09-12T17:44:07.236Z,34.99
2022-09-12T17:46:37.220Z,34.50
2022-09-12T17:49:06.821Z,34.47
2022-09-12T17:51:34.591Z,34.52
2022-09-12T17:54:11.598Z,34.56
2022-09-12T17:56:39.134Z,34.62
2022-09-12T17:59:13.241Z,34.19
2022-09-12T18:01:58.697Z,34.07
2022-09-12T18:04:25.381Z,34.32
2022-09-12T18:06:52.694Z,34.18
2022-09-12T18:09:23.221Z,34.05
2022-09-12T18:11:50.252Z,34.08
2022-09-12T18:14:17.574Z,34.10
2022-09-12T18:16:45.096Z,34.00
2022-09-12T18:19:12.251Z,33.98
2022-09-12T18:21:39.122Z,33.92
2022-09-12T18:24:05.692Z,33.86
2022-09-12T18:26:33.139Z,33.70
2022-09-12T18:29:00.129Z,33.62
2022-09-12T18:31:29.046Z,33.48
2022-09-12T18:33:57.731Z,33.37
2022-09-12T18:36:24.335Z,33.24
2022-09-12T18:38:51.234Z,33.15
2022-09-12T18:41:23.064Z,33.08
2022-09-12T18:43:57.513Z,33.20
2022-09-12T18:46:25.165Z,32.99
2022-09-12T18:48:52.242Z,32.90
2022-09-12T18:51:25.690Z,32.89
2022-09-12T18:53:56.035Z,32.84
2022-09-12T18:56:28.652Z,32.67
2022-09-12T18:58:56.665Z,32.60
2022-09-12T19:01:28.559Z,32.39
2022-09-12T19:03:55.469Z,32.40
2022-09-12T19:06:26.878Z,32.07
2022-09-12T19:08:55.262Z,32.06
2022-09-12T19:11:22.131Z,31.87
2022-09-12T19:13:50.601Z,31.83
2022-09-12T19:16:27.455Z,31.76
2022-09-12T19:18:58.223Z,31.53
2022-09-12T19:21:28.335Z,31.47
2022-09-12T19:24:00.934Z,31.10
2022-09-12T19:26:28.062Z,31.37
2022-09-12T19:28:55.225Z,31.18
2022-09-12T19:31:23.259Z,31.29
2022-09-12T19:33:52.069Z,31.00
2022-09-12T19:36:44.280Z,31.02
2022-09-12T19:39:08.443Z,31.30
2022-09-12T19:41:35.756Z,31.01
2022-09-12T19:44:04.114Z,31.11
2022-09-12T19:46:30.911Z,31.18
2022-09-12T19:48:58.615Z,30.82
2022-09-12T19:51:25.336Z,30.65
2022-09-12T19:53:53.258Z,30.86
2022-09-12T19:56:20.082Z,30.95
2022-09-12T19:58:51.027Z,31.08
2022-09-12T20:01:28.328Z,31.21
2022-09-12T20:03:56.891Z,31.39
2022-09-12T20:06:24.068Z,31.33
2022-09-12T20:08:51.663Z,31.18
2022-09-12T20:11:20.186Z,31.16
2022-09-12T20:13:47.765Z,30.94
2022-09-12T20:16:24.237Z,30.99
2022-09-12T20:18:57.015Z,30.93
2022-09-12T20:21:30.928Z,30.98
2022-09-12T20:24:12.154Z,31.01
2022-09-12T20:26:39.596Z,30.98
2022-09-12T20:29:06.674Z,30.89
2022-09-12T20:31:33.608Z,30.52
2022-09-12T20:34:00.699Z,30.71
2022-09-12T20:36:28.814Z,30.77
2022-09-12T20:38:58.123Z,30.91
2022-09-12T20:41:27.343Z,30.63
2022-09-12T20:43:55.474Z,30.74
2022-09-12T20:46:23.665Z,30.28
2022-09-12T20:48:52.638Z,30.50
2022-09-12T20:51:20.722Z,30.43
2022-09-12T20:53:47.970Z,30.33
2022-09-12T20:56:14.970Z,30.31
2022-09-12T20:58:44.072Z,30.32
2022-09-12T21:01:13.989Z,30.49
2022-09-12T21:03:42.162Z,30.41
2022-09-12T21:06:12.490Z,30.35
2022-09-12T21:08:39.768Z,30.40
2022-09-12T21:11:07.207Z,30.23
2022-09-12T21:13:34.239Z,30.18
2022-09-12T21:16:10.338Z,30.16
2022-09-12T21:18:37.499Z,30.12
2022-09-12T21:21:05.133Z,30.18
2022-09-12T21:23:32.048Z,30.30
2022-09-12T21:25:59.088Z,30.29
2022-09-12T21:28:26.542Z,30.18
2022-09-12T21:30:53.438Z,30.15
2022-09-12T21:33:21.044Z,29.93
2022-09-12T21:35:49.599Z,29.68
2022-09-12T21:38:17.161Z,29.49
2022-09-12T21:40:43.750Z,29.77
2022-09-12T21:43:12.894Z,29.71
2022-09-12T21:45:40.675Z,29.44
2022-09-12T21:48:07.866Z,29.47
2022-09-12T21:50:34.453Z,29.63
2022-09-12T21:53:00.935Z,29.67
2022-09-12T21:55:27.785Z,29.38
2022-09-12T21:57:54.744Z,29.54
2022-09-12T22:00:22.430Z,29.51
2022-09-12T22:02:49.011Z,29.37
2022-09-12T22:05:16.122Z,29.43
2022-09-12T22:07:42.642Z,29.32
2022-09-12T22:10:09.599Z,29.36
2022-09-12T22:12:36.066Z,29.63
2022-09-12T22:15:17.526Z,29.64
2022-09-12T22:17:49.165Z,29.61
2022-09-12T22:20:15.971Z,29.34
2022-09-12T22:23:00.913Z,29.36
2022-09-12T22:25:27.513Z,29.50
2022-09-12T22:27:54.921Z,29.65
2022-09-12T22:30:22.655Z,29.11
2022-09-12T22:32:51.418Z,28.90
2022-09-12T22:35:19.001Z,28.40
2022-09-12T22:37:47.490Z,28.51
2022-09-12T22:40:15.072Z,28.48
2022-09-12T22:42:41.690Z,28.30
2022-09-12T22:45:08.782Z,28.62
2022-09-12T22:47:35.395Z,29.00
2022-09-12T22:50:02.152Z,29.18
2022-09-12T22:52:28.646Z,29.02
2022-09-12T22:54:55.113Z,28.81
2022-09-12T22:57:21.780Z,29.02
2022-09-12T22:59:48.679Z,29.09
2022-09-12T23:02:15.158Z,28.65
2022-09-12T23:04:42.003Z,28.57
2022-09-12T23:07:08.515Z,28.53
2022-09-12T23:09:35.635Z,28.73
2022-09-12T23:12:03.790Z,28.44
2022-09-12T23:14:30.389Z,28.40
2022-09-12T23:16:57.005Z,28.33
2022-09-12T23:19:23.471Z,28.32
2022-09-12T23:21:50.454Z,28.60
2022-09-12T23:24:17.760Z,28.68
2022-09-12T23:26:44.253Z,28.62
2022-09-12T23:29:11.301Z,28.55
2022-09-12T23:31:38.456Z,29.18
2022-09-12T23:34:05.886Z,29.21
2022-09-12T23:36:33.483Z,29.13
2022-09-12T23:39:00.041Z,28.35
2022-09-12T23:41:27.081Z,28.46
2022-09-12T23:43:53.932Z,28.91
2022-09-12T23:46:21.161Z,28.72
2022-09-12T23:48:47.813Z,28.47
2022-09-12T23:51:14.878Z,28.71
2022-09-12T23:53:41.438Z,28.87
2022-09-12T23:56:08.198Z,28.96
2022-09-12T23:58:34.785Z,29.07
